sensor_id;sensor_type;location;lat;lon;timestamp;pressure;altitude;pressure_sealevel;temperature;humidity
14089;BME280;7120;52.890;6.040;2023-08-21T00:01:56;102302.47;;;15.65;100.00
14089;BME280;7120;52.890;6.040;2023-08-21T00:04:21;102317.41;;;15.78;100.00
14089;BME280;7120;52.890;6.040;2023-08-21T00:06:46;102301.09;;;15.62;100.00
14089;BME280;7120;52.890;6.040;2023-08-21T00:09:12;102305.94;;;15.52;100.00
14089;BME280;7120;52.890;6.040;2023-08-21T00:11:37;102309.97;;;15.59;100.00
14089;BME280;7120;52.890;6.040;2023-08-21T00:14:03;102319.66;;;15.76;100.00
14089;BME280;7120;52.890;6.040;2023-08-21T00:16:28;102321.50;;;15.80;100.00
14089;BME280;7120;52.890;6.040;2023-08-21T00:18:54;102318.53;;;15.77;100.00
14089;BME280;7120;52.890;6.040;2023-08-21T00:21:19;102306.91;;;15.61;100.00
14089;BME280;7120;52.890;6.040;2023-08-21T00:23:45;102316.75;;;15.48;100.00
14089;BME280;7120;52.890;6.040;2023-08-21T00:26:11;102326.66;;;15.49;100.00
14089;BME280;7120;52.890;6.040;2023-08-21T00:28:37;102323.31;;;15.52;100.00
14089;BME280;7120;52.890;6.040;2023-08-21T00:31:03;102328.22;;;15.55;100.00
14089;BME280;7120;52.890;6.040;2023-08-21T00:33:30;102317.56;;;15.49;100.00
14089;BME280;7120;52.890;6.040;2023-08-21T00:35:56;102325.53;;;15.50;100.00
14089;BME280;7120;52.890;6.040;2023-08-21T00:38:21;102322.50;;;15.33;100.00
14089;BME280;7120;52.890;6.040;2023-08-21T00:40:47;102321.59;;;15.19;100.00
14089;BME280;7120;52.890;6.040;2023-08-21T00:43:13;102312.00;;;14.92;100.00
14089;BME280;7120;52.890;6.040;2023-08-21T00:45:41;102312.78;;;14.98;100.00
14089;BME280;7120;52.890;6.040;2023-08-21T00:48:07;102311.03;;;14.83;100.00
14089;BME280;7120;52.890;6.040;2023-08-21T00:50:33;102309.19;;;14.97;100.00
14089;BME280;7120;52.890;6.040;2023-08-21T00:52:58;102311.34;;;15.00;100.00
14089;BME280;7120;52.890;6.040;2023-08-21T00:55:24;102316.50;;;15.07;100.00
14089;BME280;7120;52.890;6.040;2023-08-21T00:57:51;102321.88;;;15.17;100.00
14089;BME280;7120;52.890;6.040;2023-08-21T01:00:16;102329.41;;;15.11;100.00
14089;BME280;7120;52.890;6.040;2023-08-21T01:02:42;102311.34;;;15.00;100.00
14089;BME280;7120;52.890;6.040;2023-08-21T01:05:08;102304.88;;;14.91;100.00
14089;BME280;7120;52.890;6.040;2023-08-21T01:11:02;102316.13;;;14.95;100.00
14089;BME280;7120;52.890;6.040;2023-08-21T01:16:16;102325.75;;;14.73;100.00
14089;BME280;7120;52.890;6.040;2023-08-21T01:18:44;102325.09;;;14.57;100.00
14089;BME280;7120;52.890;6.040;2023-08-21T01:21:12;102324.41;;;14.42;100.00
14089;BME280;7120;52.890;6.040;2023-08-21T01:23:38;102320.75;;;14.51;100.00
14089;BME280;7120;52.890;6.040;2023-08-21T01:26:04;102327.56;;;14.30;100.00
14089;BME280;7120;52.890;6.040;2023-08-21T01:28:33;102334.09;;;14.10;100.00
14089;BME280;7120;52.890;6.040;2023-08-21T01:31:08;102329.31;;;14.21;100.00
14089;BME280;7120;52.890;6.040;2023-08-21T01:33:41;102331.97;;;14.31;100.00
14089;BME280;7120;52.890;6.040;2023-08-21T01:36:07;102336.41;;;14.27;100.00
14089;BME280;7120;52.890;6.040;2023-08-21T01:38:33;102323.19;;;14.00;100.00
14089;BME280;7120;52.890;6.040;2023-08-21T01:41:00;102323.44;;;14.04;100.00
14089;BME280;7120;52.890;6.040;2023-08-21T01:43:25;102335.78;;;14.35;100.00
14089;BME280;7120;52.890;6.040;2023-08-21T01:45:51;102318.31;;;14.50;100.00
14089;BME280;7120;52.890;6.040;2023-08-21T01:48:16;102332.78;;;14.61;100.00
14089;BME280;7120;52.890;6.040;2023-08-21T01:50:42;102337.94;;;14.67;100.00
14089;BME280;7120;52.890;6.040;2023-08-21T01:53:07;102332.31;;;14.53;100.00
14089;BME280;7120;52.890;6.040;2023-08-21T01:55:33;102336.59;;;14.36;100.00
14089;BME280;7120;52.890;6.040;2023-08-21T01:57:58;102318.31;;;14.21;100.00
14089;BME280;7120;52.890;6.040;2023-08-21T02:00:23;102337.66;;;14.40;100.00
14089;BME280;7120;52.890;6.040;2023-08-21T02:02:49;102337.34;;;14.46;100.00
14089;BME280;7120;52.890;6.040;2023-08-21T02:05:14;102336.63;;;14.01;100.00
14089;BME280;7120;52.890;6.040;2023-08-21T02:07:39;102341.13;;;13.92;100.00
14089;BME280;7120;52.890;6.040;2023-08-21T02:10:05;102348.56;;;13.92;100.00
14089;BME280;7120;52.890;6.040;2023-08-21T02:12:31;102337.94;;;14.09;100.00
14089;BME280;7120;52.890;6.040;2023-08-21T02:14:56;102350.59;;;14.39;100.00
14089;BME280;7120;52.890;6.040;2023-08-21T02:17:25;102345.44;;;14.62;100.00
14089;BME280;7120;52.890;6.040;2023-08-21T02:19:50;102327.28;;;14.61;100.00
14089;BME280;7120;52.890;6.040;2023-08-21T02:22:16;102351.00;;;14.56;100.00
14089;BME280;7120;52.890;6.040;2023-08-21T02:24:41;102345.53;;;14.51;100.00
14089;BME280;7120;52.890;6.040;2023-08-21T02:27:06;102337.38;;;14.41;100.00
14089;BME280;7120;52.890;6.040;2023-08-21T02:29:32;102330.59;;;14.28;100.00
14089;BME280;7120;52.890;6.040;2023-08-21T02:31:57;102339.84;;;14.14;100.00
14089;BME280;7120;52.890;6.040;2023-08-21T02:34:24;102350.81;;;14.19;100.00
14089;BME280;7120;52.890;6.040;2023-08-21T02:36:49;102348.41;;;14.07;100.00
14089;BME280;7120;52.890;6.040;2023-08-21T02:39:14;102349.97;;;14.18;100.00
14089;BME280;7120;52.890;6.040;2023-08-21T02:41:40;102337.13;;;14.09;100.00
14089;BME280;7120;52.890;6.040;2023-08-21T02:44:05;102352.41;;;14.25;100.00
14089;BME280;7120;52.890;6.040;2023-08-21T02:46:31;102355.28;;;14.39;100.00
14089;BME280;7120;52.890;6.040;2023-08-21T02:48:58;102357.41;;;14.52;100.00
14089;BME280;7120;52.890;6.040;2023-08-21T02:51:23;102358.97;;;14.58;100.00
14089;BME280;7120;52.890;6.040;2023-08-21T02:53:49;102339.75;;;14.53;100.00
14089;BME280;7120;52.890;6.040;2023-08-21T02:56:14;102345.53;;;14.51;100.00
14089;BME280;7120;52.890;6.040;2023-08-21T02:58:40;102329.09;;;14.41;100.00
14089;BME280;7120;52.890;6.040;2023-08-21T03:01:05;102342.41;;;14.34;100.00
14089;BME280;7120;52.890;6.040;2023-08-21T03:03:30;102328.50;;;14.20;100.00
14089;BME280;7120;52.890;6.040;2023-08-21T03:05:57;102337.72;;;14.06;100.00
14089;BME280;7120;52.890;6.040;2023-08-21T03:08:23;102337.69;;;14.11;100.00
14089;BME280;7120;52.890;6.040;2023-08-21T03:10:48;102342.22;;;14.25;100.00
14089;BME280;7120;52.890;6.040;2023-08-21T03:13:13;102337.16;;;14.38;100.00
14089;BME280;7120;52.890;6.040;2023-08-21T03:15:39;102340.41;;;14.40;100.00
14089;BME280;7120;52.890;6.040;2023-08-21T03:18:04;102329.16;;;14.36;100.00
14089;BME280;7120;52.890;6.040;2023-08-21T03:20:30;102331.13;;;14.30;100.00
14089;BME280;7120;52.890;6.040;2023-08-21T03:22:55;102327.38;;;14.21;100.00
14089;BME280;7120;52.890;6.040;2023-08-21T03:25:20;102332.09;;;14.16;100.00
14089;BME280;7120;52.890;6.040;2023-08-21T03:27:46;102321.41;;;14.14;100.00
14089;BME280;7120;52.890;6.040;2023-08-21T03:30:14;102322.84;;;14.07;100.00
14089;BME280;7120;52.890;6.040;2023-08-21T03:32:40;102322.84;;;14.07;100.00
14089;BME280;7120;52.890;6.040;2023-08-21T03:35:06;102318.13;;;14.12;100.00
14089;BME280;7120;52.890;6.040;2023-08-21T03:37:31;102319.72;;;14.18;100.00
14089;BME280;7120;52.890;6.040;2023-08-21T03:39:56;102323.16;;;14.29;100.00
14089;BME280;7120;52.890;6.040;2023-08-21T03:42:22;102326.47;;;14.31;100.00
14089;BME280;7120;52.890;6.040;2023-08-21T03:44:47;102311.97;;;14.20;100.00
14089;BME280;7120;52.890;6.040;2023-08-21T03:47:16;102305.56;;;14.01;100.00
14089;BME280;7120;52.890;6.040;2023-08-21T03:49:41;102299.31;;;13.95;100.00
14089;BME280;7120;52.890;6.040;2023-08-21T03:52:06;102302.63;;;13.92;100.00
14089;BME280;7120;52.890;6.040;2023-08-21T03:54:32;102311.97;;;13.91;100.00
14089;BME280;7120;52.890;6.040;2023-08-21T03:56:57;102301.28;;;13.90;100.00
14089;BME280;7120;52.890;6.040;2023-08-21T03:59:23;102311.41;;;13.94;100.00
14089;BME280;7120;52.890;6.040;2023-08-21T04:01:49;102301.03;;;13.86;100.00
14089;BME280;7120;52.890;6.040;2023-08-21T04:04:14;102304.91;;;13.80;100.00
14089;BME280;7120;52.890;6.040;2023-08-21T04:06:40;102316.06;;;13.60;100.00
14089;BME280;7120;52.890;6.040;2023-08-21T04:09:05;102307.50;;;13.27;100.00
14089;BME280;7120;52.890;6.040;2023-08-21T04:11:32;102305.06;;;13.15;100.00
14089;BME280;7120;52.890;6.040;2023-08-21T04:13:58;102319.88;;;13.25;100.00
14089;BME280;7120;52.890;6.040;2023-08-21T04:16:24;102320.16;;;13.23;100.00
14089;BME280;7120;52.890;6.040;2023-08-21T04:18:49;102311.91;;;13.23;100.00
14089;BME280;7120;52.890;6.040;2023-08-21T04:21:15;102320.56;;;13.45;100.00
14089;BME280;7120;52.890;6.040;2023-08-21T04:23:40;102325.44;;;13.59;100.00
14089;BME280;7120;52.890;6.040;2023-08-21T04:26:06;102332.06;;;13.53;100.00
14089;BME280;7120;52.890;6.040;2023-08-21T04:28:33;102335.09;;;13.51;100.00
14089;BME280;7120;52.890;6.040;2023-08-21T04:30:59;102333.22;;;13.46;100.00
14089;BME280;7120;52.890;6.040;2023-08-21T04:33:25;102338.66;;;13.52;100.00
14089;BME280;7120;52.890;6.040;2023-08-21T04:35:50;102320.84;;;13.49;100.00
14089;BME280;7120;52.890;6.040;2023-08-21T04:38:16;102332.84;;;13.58;100.00
14089;BME280;7120;52.890;6.040;2023-08-21T04:40:41;102324.59;;;13.63;100.00
14089;BME280;7120;52.890;6.040;2023-08-21T04:43:06;102317.41;;;13.67;100.00
14089;BME280;7120;52.890;6.040;2023-08-21T04:45:33;102319.94;;;13.59;100.00
14089;BME280;7120;52.890;6.040;2023-08-21T04:47:59;102330.81;;;13.40;100.00
14089;BME280;7120;52.890;6.040;2023-08-21T04:50:24;102322.09;;;13.23;100.00
14089;BME280;7120;52.890;6.040;2023-08-21T04:52:49;102313.34;;;13.10;100.00
14089;BME280;7120;52.890;6.040;2023-08-21T04:55:15;102309.00;;;13.04;100.00
14089;BME280;7120;52.890;6.040;2023-08-21T04:57:41;102309.81;;;13.05;100.00
14089;BME280;7120;52.890;6.040;2023-08-21T05:00:07;102319.91;;;13.19;100.00
14089;BME280;7120;52.890;6.040;2023-08-21T05:02:33;102326.66;;;13.37;100.00
14089;BME280;7120;52.890;6.040;2023-08-21T05:04:59;102331.50;;;13.56;100.00
14089;BME280;7120;52.890;6.040;2023-08-21T05:07:25;102325.81;;;13.81;100.00
14089;BME280;7120;52.890;6.040;2023-08-21T05:09:52;102333.47;;;13.89;100.00
14089;BME280;7120;52.890;6.040;2023-08-21T05:12:17;102322.78;;;13.83;100.00
14089;BME280;7120;52.890;6.040;2023-08-21T05:14:42;102336.28;;;13.79;100.00
14089;BME280;7120;52.890;6.040;2023-08-21T05:17:08;102328.91;;;13.74;100.00
14089;BME280;7120;52.890;6.040;2023-08-21T05:19:33;102330.09;;;13.97;100.00
14089;BME280;7120;52.890;6.040;2023-08-21T05:21:59;102336.94;;;14.29;100.00
14089;BME280;7120;52.890;6.040;2023-08-21T05:24:24;102333.66;;;14.56;100.00
14089;BME280;7120;52.890;6.040;2023-08-21T05:26:49;102333.13;;;14.78;100.00
14089;BME280;7120;52.890;6.040;2023-08-21T05:29:15;102342.47;;;14.82;100.00
14089;BME280;7120;52.890;6.040;2023-08-21T05:31:40;102326.84;;;14.72;100.00
14089;BME280;7120;52.890;6.040;2023-08-21T05:34:06;102351.69;;;14.91;100.00
14089;BME280;7120;52.890;6.040;2023-08-21T05:36:31;102353.69;;;15.09;100.00
14089;BME280;7120;52.890;6.040;2023-08-21T05:38:57;102342.50;;;15.20;100.00
14089;BME280;7120;52.890;6.040;2023-08-21T05:41:22;102345.22;;;15.25;100.00
14089;BME280;7120;52.890;6.040;2023-08-21T05:43:47;102358.72;;;15.45;100.00
14089;BME280;7120;52.890;6.040;2023-08-21T05:46:14;102358.63;;;15.50;100.00
14089;BME280;7120;52.890;6.040;2023-08-21T05:48:39;102348.03;;;15.57;100.00
14089;BME280;7120;52.890;6.040;2023-08-21T05:51:05;102341.78;;;15.52;100.00
14089;BME280;7120;52.890;6.040;2023-08-21T05:53:30;102362.00;;;15.66;100.00
14089;BME280;7120;52.890;6.040;2023-08-21T05:55:55;102360.44;;;15.79;100.00
14089;BME280;7120;52.890;6.040;2023-08-21T05:58:21;102352.59;;;15.86;100.00
14089;BME280;7120;52.890;6.040;2023-08-21T06:00:48;102360.34;;;15.84;100.00
14089;BME280;7120;52.890;6.040;2023-08-21T06:03:13;102359.56;;;15.97;100.00
14089;BME280;7120;52.890;6.040;2023-08-21T06:05:39;102374.56;;;16.10;100.00
14089;BME280;7120;52.890;6.040;2023-08-21T06:08:04;102367.31;;;16.28;100.00
14089;BME280;7120;52.890;6.040;2023-08-21T06:10:31;102368.06;;;16.33;100.00
14089;BME280;7120;52.890;6.040;2023-08-21T06:12:57;102374.56;;;16.56;100.00
14089;BME280;7120;52.890;6.040;2023-08-21T06:15:22;102368.91;;;16.61;100.00
14089;BME280;7120;52.890;6.040;2023-08-21T06:17:47;102367.19;;;16.65;100.00
14089;BME280;7120;52.890;6.040;2023-08-21T06:20:13;102365.69;;;16.87;100.00
14089;BME280;7120;52.890;6.040;2023-08-21T06:22:39;102364.47;;;16.93;100.00
14089;BME280;7120;52.890;6.040;2023-08-21T06:25:04;102362.94;;;17.00;100.00
14089;BME280;7120;52.890;6.040;2023-08-21T06:27:30;102364.47;;;17.07;100.00
14089;BME280;7120;52.890;6.040;2023-08-21T06:29:55;102366.00;;;17.13;100.00
14089;BME280;7120;52.890;6.040;2023-08-21T06:32:21;102369.44;;;17.32;100.00
14089;BME280;7120;52.890;6.040;2023-08-21T06:34:46;102363.78;;;17.37;100.00
14089;BME280;7120;52.890;6.040;2023-08-21T06:37:12;102362.63;;;17.52;100.00
14089;BME280;7120;52.890;6.040;2023-08-21T06:39:38;102363.41;;;17.66;100.00
14089;BME280;7120;52.890;6.040;2023-08-21T06:42:03;102367.06;;;17.75;100.00
14089;BME280;7120;52.890;6.040;2023-08-21T06:44:29;102355.22;;;17.97;100.00
14089;BME280;7120;52.890;6.040;2023-08-21T06:46:54;102356.13;;;18.15;100.00
14089;BME280;7120;52.890;6.040;2023-08-21T06:49:20;102363.41;;;18.33;100.00
14089;BME280;7120;52.890;6.040;2023-08-21T06:51:45;102368.53;;;18.49;100.00
14089;BME280;7120;52.890;6.040;2023-08-21T06:54:10;102368.41;;;18.54;100.00
14089;BME280;7120;52.890;6.040;2023-08-21T06:56:36;102361.56;;;18.60;100.00
14089;BME280;7120;52.890;6.040;2023-08-21T06:59:01;102355.13;;;18.73;100.00
14089;BME280;7120;52.890;6.040;2023-08-21T07:01:30;102355.69;;;18.84;100.00
14089;BME280;7120;52.890;6.040;2023-08-21T07:03:55;102359.97;;;18.99;100.00
14089;BME280;7120;52.890;6.040;2023-08-21T07:06:21;102353.81;;;19.19;100.00
14089;BME280;7120;52.890;6.040;2023-08-21T07:08:46;102353.34;;;19.43;100.00
14089;BME280;7120;52.890;6.040;2023-08-21T07:11:11;102353.19;;;19.57;100.00
14089;BME280;7120;52.890;6.040;2023-08-21T07:13:38;102353.53;;;19.72;100.00
14089;BME280;7120;52.890;6.040;2023-08-21T07:16:03;102351.59;;;19.82;100.00
14089;BME280;7120;52.890;6.040;2023-08-21T07:18:32;102347.63;;;20.00;100.00
14089;BME280;7120;52.890;6.040;2023-08-21T07:20:58;102358.88;;;20.12;100.00
14089;BME280;7120;52.890;6.040;2023-08-21T07:23:24;102357.69;;;20.39;100.00
14089;BME280;7120;52.890;6.040;2023-08-21T07:25:49;102351.97;;;20.44;100.00
14089;BME280;7120;52.890;6.040;2023-08-21T07:28:14;102354.25;;;20.80;100.00
14089;BME280;7120;52.890;6.040;2023-08-21T07:30:40;102350.63;;;20.89;100.00
14089;BME280;7120;52.890;6.040;2023-08-21T07:33:05;102358.19;;;21.09;100.00
14089;BME280;7120;52.890;6.040;2023-08-21T07:35:32;102358.81;;;21.15;100.00
14089;BME280;7120;52.890;6.040;2023-08-21T07:37:57;102350.22;;;21.28;100.00
14089;BME280;7120;52.890;6.040;2023-08-21T07:40:22;102353.78;;;21.58;100.00
14089;BME280;7120;52.890;6.040;2023-08-21T07:42:48;102350.56;;;21.48;100.00
14089;BME280;7120;52.890;6.040;2023-08-21T07:45:13;102348.56;;;21.27;100.00
14089;BME280;7120;52.890;6.040;2023-08-21T07:47:39;102350.53;;;21.35;100.00
14089;BME280;7120;52.890;6.040;2023-08-21T07:50:05;102351.38;;;21.48;100.00
14089;BME280;7120;52.890;6.040;2023-08-21T07:52:32;102356.34;;;21.63;100.00
14089;BME280;7120;52.890;6.040;2023-08-21T07:54:57;102347.88;;;21.60;100.00
14089;BME280;7120;52.890;6.040;2023-08-21T07:57:24;102365.16;;;21.86;100.00
14089;BME280;7120;52.890;6.040;2023-08-21T07:59:49;102350.59;;;22.02;100.00
14089;BME280;7120;52.890;6.040;2023-08-21T08:02:15;102352.31;;;21.94;100.00
14089;BME280;7120;52.890;6.040;2023-08-21T08:04:40;102358.81;;;22.31;100.00
14089;BME280;7120;52.890;6.040;2023-08-21T08:07:07;102343.72;;;22.32;100.00
14089;BME280;7120;52.890;6.040;2023-08-21T08:09:33;102357.78;;;22.48;100.00
14089;BME280;7120;52.890;6.040;2023-08-21T08:11:58;102366.81;;;23.02;100.00
14089;BME280;7120;52.890;6.040;2023-08-21T08:14:23;102357.66;;;23.42;100.00
14089;BME280;7120;52.890;6.040;2023-08-21T08:16:49;102369.91;;;23.78;100.00
14089;BME280;7120;52.890;6.040;2023-08-21T08:19:14;102368.94;;;24.14;100.00
14089;BME280;7120;52.890;6.040;2023-08-21T08:21:39;102365.34;;;24.29;100.00
14089;BME280;7120;52.890;6.040;2023-08-21T08:24:05;102369.91;;;24.81;100.00
14089;BME280;7120;52.890;6.040;2023-08-21T08:26:30;102372.06;;;25.04;100.00
14089;BME280;7120;52.890;6.040;2023-08-21T08:28:56;102376.94;;;25.42;100.00
14089;BME280;7120;52.890;6.040;2023-08-21T08:31:21;102376.94;;;25.42;100.00
14089;BME280;7120;52.890;6.040;2023-08-21T08:33:49;102374.28;;;25.49;100.00
14089;BME280;7120;52.890;6.040;2023-08-21T08:36:14;102374.31;;;25.68;100.00
14089;BME280;7120;52.890;6.040;2023-08-21T08:38:40;102364.00;;;25.92;100.00
14089;BME280;7120;52.890;6.040;2023-08-21T08:41:11;102368.78;;;26.11;100.00
14089;BME280;7120;52.890;6.040;2023-08-21T08:43:39;102363.13;;;25.88;99.47
14089;BME280;7120;52.890;6.040;2023-08-21T08:46:06;102362.41;;;26.14;100.00
14089;BME280;7120;52.890;6.040;2023-08-21T08:48:33;102358.28;;;26.73;100.00
14089;BME280;7120;52.890;6.040;2023-08-21T08:50:59;102362.72;;;26.51;94.52
14089;BME280;7120;52.890;6.040;2023-08-21T08:53:25;102379.34;;;26.86;97.23
14089;BME280;7120;52.890;6.040;2023-08-21T08:55:58;102369.06;;;26.48;94.45
14089;BME280;7120;52.890;6.040;2023-08-21T08:58:23;102372.44;;;26.80;93.89
14089;BME280;7120;52.890;6.040;2023-08-21T09:00:49;102374.84;;;27.34;93.79
14089;BME280;7120;52.890;6.040;2023-08-21T09:03:14;102370.00;;;27.31;95.01
14089;BME280;7120;52.890;6.040;2023-08-21T09:05:41;102367.44;;;26.70;85.64
14089;BME280;7120;52.890;6.040;2023-08-21T09:10:31;102363.88;;;27.22;89.82
14089;BME280;7120;52.890;6.040;2023-08-21T09:12:57;102375.03;;;26.69;86.99
14089;BME280;7120;52.890;6.040;2023-08-21T09:15:29;102374.00;;;27.04;89.56
14089;BME280;7120;52.890;6.040;2023-08-21T09:17:57;102366.38;;;27.61;94.52
14089;BME280;7120;52.890;6.040;2023-08-21T09:20:22;102365.56;;;27.60;79.73
14089;BME280;7120;52.890;6.040;2023-08-21T09:22:53;102367.06;;;27.51;81.31
14089;BME280;7120;52.890;6.040;2023-08-21T09:25:20;102360.59;;;27.20;76.69
14089;BME280;7120;52.890;6.040;2023-08-21T09:27:46;102356.97;;;27.16;88.56
14089;BME280;7120;52.890;6.040;2023-08-21T09:30:11;102371.00;;;27.46;79.80
14089;BME280;7120;52.890;6.040;2023-08-21T09:32:58;102363.63;;;27.64;81.16
14089;BME280;7120;52.890;6.040;2023-08-21T09:35:26;102355.47;;;28.23;82.57
14089;BME280;7120;52.890;6.040;2023-08-21T09:37:51;102373.38;;;27.71;73.87
14089;BME280;7120;52.890;6.040;2023-08-21T09:40:21;102376.44;;;27.92;78.00
14089;BME280;7120;52.890;6.040;2023-08-21T09:42:51;102372.88;;;27.65;75.59
14089;BME280;7120;52.890;6.040;2023-08-21T09:45:20;102363.56;;;27.61;79.17
14089;BME280;7120;52.890;6.040;2023-08-21T09:47:46;102371.63;;;27.92;81.99
14089;BME280;7120;52.890;6.040;2023-08-21T09:50:12;102362.88;;;28.01;78.72
14089;BME280;7120;52.890;6.040;2023-08-21T09:52:38;102355.69;;;28.44;74.11
14089;BME280;7120;52.890;6.040;2023-08-21T09:55:05;102364.41;;;28.32;66.30
14089;BME280;7120;52.890;6.040;2023-08-21T09:57:31;102348.13;;;28.52;72.93
14089;BME280;7120;52.890;6.040;2023-08-21T09:59:59;102367.47;;;28.57;69.34
14089;BME280;7120;52.890;6.040;2023-08-21T10:02:25;102351.78;;;28.19;62.85
14089;BME280;7120;52.890;6.040;2023-08-21T10:04:51;102370.44;;;28.31;68.40
14089;BME280;7120;52.890;6.040;2023-08-21T10:07:20;102369.13;;;28.25;65.52
14089;BME280;7120;52.890;6.040;2023-08-21T10:09:47;102363.56;;;28.69;59.91
14089;BME280;7120;52.890;6.040;2023-08-21T10:12:14;102364.34;;;28.69;61.99
14089;BME280;7120;52.890;6.040;2023-08-21T10:14:41;102358.59;;;28.55;62.80
14089;BME280;7120;52.890;6.040;2023-08-21T10:17:07;102365.84;;;28.56;64.88
14089;BME280;7120;52.890;6.040;2023-08-21T10:19:34;102353.84;;;28.63;65.82
14089;BME280;7120;52.890;6.040;2023-08-21T10:21:59;102351.94;;;28.81;67.99
14089;BME280;7120;52.890;6.040;2023-08-21T10:24:34;102350.88;;;28.93;62.71
14089;BME280;7120;52.890;6.040;2023-08-21T10:26:59;102344.91;;;29.05;63.25
14089;BME280;7120;52.890;6.040;2023-08-21T10:29:25;102344.66;;;28.69;60.72
14089;BME280;7120;52.890;6.040;2023-08-21T10:32:03;102338.97;;;28.66;63.46
14089;BME280;7120;52.890;6.040;2023-08-21T10:34:34;102338.19;;;29.31;63.49
14089;BME280;7120;52.890;6.040;2023-08-21T10:39:26;102346.47;;;29.79;60.74
14089;BME280;7120;52.890;6.040;2023-08-21T10:49:56;102351.88;;;30.41;61.63
14089;BME280;7120;52.890;6.040;2023-08-21T10:54:55;102342.56;;;30.12;55.18
14089;BME280;7120;52.890;6.040;2023-08-21T10:57:22;102347.81;;;30.49;56.91
14089;BME280;7120;52.890;6.040;2023-08-21T10:59:52;102358.72;;;30.54;54.14
14089;BME280;7120;52.890;6.040;2023-08-21T11:02:18;102355.47;;;30.10;52.37
14089;BME280;7120;52.890;6.040;2023-08-21T11:04:44;102365.94;;;31.12;53.41
14089;BME280;7120;52.890;6.040;2023-08-21T11:07:10;102356.59;;;29.91;48.57
14089;BME280;7120;52.890;6.040;2023-08-21T11:09:38;102359.78;;;29.75;52.72
14089;BME280;7120;52.890;6.040;2023-08-21T11:12:12;102356.69;;;30.23;50.63
14089;BME280;7120;52.890;6.040;2023-08-21T11:14:38;102348.22;;;30.58;52.55
14089;BME280;7120;52.890;6.040;2023-08-21T11:17:04;102356.28;;;30.10;50.06
14089;BME280;7120;52.890;6.040;2023-08-21T11:19:34;102356.72;;;30.41;53.65
14089;BME280;7120;52.890;6.040;2023-08-21T11:22:00;102357.94;;;30.72;52.62
14089;BME280;7120;52.890;6.040;2023-08-21T11:27:04;102343.38;;;30.16;48.59
14089;BME280;7120;52.890;6.040;2023-08-21T11:29:35;102353.06;;;30.12;48.10
14089;BME280;7120;52.890;6.040;2023-08-21T11:32:02;102355.13;;;30.68;48.81
14089;BME280;7120;52.890;6.040;2023-08-21T11:34:28;102351.81;;;31.30;51.21
14089;BME280;7120;52.890;6.040;2023-08-21T11:36:54;102344.56;;;31.04;48.54
14089;BME280;7120;52.890;6.040;2023-08-21T11:39:19;102343.81;;;30.54;46.98
14089;BME280;7120;52.890;6.040;2023-08-21T11:41:57;102347.41;;;30.44;45.81
14089;BME280;7120;52.890;6.040;2023-08-21T11:44:23;102342.59;;;30.80;47.52
14089;BME280;7120;52.890;6.040;2023-08-21T11:46:52;102342.22;;;30.74;46.03
14089;BME280;7120;52.890;6.040;2023-08-21T11:49:20;102331.69;;;30.64;45.02
14089;BME280;7120;52.890;6.040;2023-08-21T11:51:47;102334.53;;;30.75;44.50
14089;BME280;7120;52.890;6.040;2023-08-21T11:54:13;102335.19;;;29.68;45.87
14089;BME280;7120;52.890;6.040;2023-08-21T11:56:39;102337.72;;;30.13;48.36
14089;BME280;7120;52.890;6.040;2023-08-21T11:59:07;102327.66;;;30.54;46.24
14089;BME280;7120;52.890;6.040;2023-08-21T12:01:33;102321.22;;;30.40;44.63
14089;BME280;7120;52.890;6.040;2023-08-21T12:03:59;102331.22;;;30.08;46.74
14089;BME280;7120;52.890;6.040;2023-08-21T12:06:25;102323.66;;;30.80;45.88
14089;BME280;7120;52.890;6.040;2023-08-21T12:08:51;102314.59;;;31.39;45.81
14089;BME280;7120;52.890;6.040;2023-08-21T12:11:16;102313.47;;;31.01;42.00
14089;BME280;7120;52.890;6.040;2023-08-21T12:13:42;102334.13;;;30.73;40.09
14089;BME280;7120;52.890;6.040;2023-08-21T12:16:08;102333.22;;;29.90;41.11
14089;BME280;7120;52.890;6.040;2023-08-21T12:18:33;102333.25;;;30.04;44.06
14089;BME280;7120;52.890;6.040;2023-08-21T12:20:58;102329.63;;;31.00;41.67
14089;BME280;7120;52.890;6.040;2023-08-21T12:23:24;102334.47;;;31.03;42.61
14089;BME280;7120;52.890;6.040;2023-08-21T12:25:50;102330.47;;;30.51;44.76
14089;BME280;7120;52.890;6.040;2023-08-21T12:28:15;102339.28;;;29.99;44.92
14089;BME280;7120;52.890;6.040;2023-08-21T12:30:40;102335.22;;;29.86;44.53
14089;BME280;7120;52.890;6.040;2023-08-21T12:33:06;102323.97;;;30.00;45.15
14089;BME280;7120;52.890;6.040;2023-08-21T12:35:31;102322.78;;;30.16;47.80
14089;BME280;7120;52.890;6.040;2023-08-21T12:37:58;102322.81;;;30.90;41.84
14089;BME280;7120;52.890;6.040;2023-08-21T12:40:23;102324.81;;;30.58;44.16
14089;BME280;7120;52.890;6.040;2023-08-21T12:42:49;102324.44;;;30.70;43.43
14089;BME280;7120;52.890;6.040;2023-08-21T12:45:15;102325.53;;;31.37;44.11
14089;BME280;7120;52.890;6.040;2023-08-21T12:47:41;102321.25;;;31.84;42.39
14089;BME280;7120;52.890;6.040;2023-08-21T12:50:07;102325.31;;;31.87;39.19
14089;BME280;7120;52.890;6.040;2023-08-21T12:52:32;102321.63;;;31.90;43.65
14089;BME280;7120;52.890;6.040;2023-08-21T12:54:58;102310.03;;;31.63;40.31
14089;BME280;7120;52.890;6.040;2023-08-21T12:57:24;102312.41;;;31.75;40.56
14089;BME280;7120;52.890;6.040;2023-08-21T12:59:51;102311.06;;;31.97;41.31
14089;BME280;7120;52.890;6.040;2023-08-21T13:02:16;102310.34;;;31.86;39.92
14089;BME280;7120;52.890;6.040;2023-08-21T13:04:42;102307.75;;;32.06;42.69
14089;BME280;7120;52.890;6.040;2023-08-21T13:07:07;102315.31;;;31.61;38.95
14089;BME280;7120;52.890;6.040;2023-08-21T13:09:32;102309.88;;;30.97;39.87
14089;BME280;7120;52.890;6.040;2023-08-21T13:11:58;102301.22;;;31.47;40.63